Time;durP1;ratioP1;P1;durP2;ratioP2;P2;SDS_P1;SDS_P2;PMS_P1;PMS_P2;Temp;Humidity;BMP_temperature;BMP_pressure;BME280_temperature;BME280_humidity;BME280_pressure;Samples;Min_cycle;Max_cycle;Signal;HPM_P1;HPM_P2
2021/10/02 00:37:53;;;;;;;17.40;13.75;;;13.00;99.90;;;;;;5118448;27;20414;-68
2021/10/02 00:45:50;;;;;;;23.35;16.83;;;13.00;99.90;;;;;;5120767;27;20222;-68
2021/10/02 00:48:17;;;;;;;19.95;15.40;;;13.00;99.90;;;;;;5083953;27;20077;-69
2021/10/02 00:50:45;;;;;;;20.77;16.23;;;13.00;99.90;;;;;;5116148;27;20039;-68
2021/10/02 00:53:12;;;;;;;20.23;17.33;;;13.00;99.90;;;;;;5083815;27;20040;-68
2021/10/02 00:55:37;;;;;;;22.67;17.38;;;13.00;99.90;;;;;;5097414;27;20369;-68
2021/10/02 00:58:03;;;;;;;22.48;17.73;;;13.00;99.90;;;;;;5118270;27;20041;-68
2021/10/02 01:00:30;;;;;;;20.08;17.35;;;13.00;99.90;;;;;;5115579;27;20043;-68
2021/10/02 01:03:09;;;;;;;22.35;17.73;;;13.00;99.90;;;;;;5097712;27;20132;-68
2021/10/02 01:06:25;;;;;;;20.83;15.00;;;13.00;99.90;;;;;;5118376;27;20036;-68
2021/10/02 01:09:03;;;;;;;27.77;19.02;;;13.00;99.90;;;;;;5065045;27;20534;-68
2021/10/02 01:11:38;;;;;;;22.48;18.13;;;13.00;99.90;;;;;;5102162;27;20031;-68
2021/10/02 01:14:10;;;;;;;;;;;12.90;99.90;;;;;;5122022;27;20067;-68
2021/10/02 01:16:38;;;;;;;27.30;18.13;;;13.00;99.90;;;;;;5104244;27;20006;-68
2021/10/02 01:19:41;;;;;;;24.33;16.85;;;13.00;99.90;;;;;;5106138;27;20073;-68
2021/10/02 01:22:10;;;;;;;28.30;20.02;;;13.00;99.90;;;;;;5099687;27;20031;-68
2021/10/02 01:25:00;;;;;;;20.75;17.10;;;13.00;99.90;;;;;;5098052;27;20039;-68
2021/10/02 01:28:04;;;;;;;21.90;17.80;;;13.10;99.90;;;;;;5102590;27;20041;-68
2021/10/02 01:33:40;;;;;;;32.22;20.15;;;13.00;99.90;;;;;;5118194;27;20031;-68
2021/10/02 01:36:38;;;;;;;21.25;16.23;;;13.10;99.90;;;;;;5108233;27;20063;-68
2021/10/02 01:47:30;;;;;;;25.83;17.88;;;12.90;99.90;;;;;;5109428;27;20062;-68
2021/10/02 01:49:57;;;;;;;24.55;19.23;;;12.90;99.90;;;;;;5086092;28;20061;-68
2021/10/02 01:52:32;;;;;;;25.90;18.83;;;12.90;99.90;;;;;;5114543;27;20108;-68
2021/10/02 01:55:00;;;;;;;26.50;19.05;;;12.90;99.90;;;;;;5117581;27;20110;-68
2021/10/02 01:57:31;;;;;;;29.90;19.63;;;12.80;99.90;;;;;;5084550;27;20050;-68
2021/10/02 02:00:01;;;;;;;19.42;17.25;;;12.80;99.90;;;;;;5083128;27;20138;-68
2021/10/02 02:02:29;;;;;;;27.75;18.90;;;12.80;99.90;;;;;;5107587;27;20035;-68
2021/10/02 02:04:56;;;;;;;29.40;19.70;;;12.80;99.90;;;;;;5099235;28;20038;-68
2021/10/02 02:07:25;;;;;;;35.97;21.85;;;12.80;99.90;;;;;;5111847;27;20044;-68
2021/10/02 02:09:56;;;;;;;24.00;18.60;;;12.70;99.90;;;;;;5120963;27;20404;-68
2021/10/02 02:12:23;;;;;;;24.83;20.20;;;12.70;99.90;;;;;;5111732;27;20458;-69
2021/10/02 02:14:50;;;;;;;23.02;18.05;;;12.60;99.90;;;;;;5099132;27;20054;-67
2021/10/02 02:17:21;;;;;;;23.15;17.02;;;12.60;99.90;;;;;;5116276;27;20038;-67
2021/10/02 02:19:47;;;;;;;26.95;18.88;;;12.60;99.90;;;;;;5118136;27;20082;-67
2021/10/02 02:22:14;;;;;;;22.17;18.05;;;12.50;99.90;;;;;;5092483;27;20050;-68
2021/10/02 02:24:39;;;;;;;30.80;19.98;;;12.50;99.90;;;;;;5100724;27;20043;-68
2021/10/02 02:27:06;;;;;;;21.25;16.58;;;12.50;99.90;;;;;;5098629;27;20043;-67
2021/10/02 02:29:33;;;;;;;23.92;17.98;;;12.50;99.90;;;;;;5093212;27;20557;-68
2021/10/02 02:32:01;;;;;;;28.15;19.77;;;12.50;99.90;;;;;;5099365;27;20533;-68
2021/10/02 02:34:28;;;;;;;22.30;17.98;;;12.40;99.90;;;;;;5115836;27;20031;-67
2021/10/02 02:36:56;;;;;;;46.33;24.00;;;12.40;99.90;;;;;;5097866;27;20508;-67
2021/10/02 02:39:22;;;;;;;33.58;22.08;;;12.40;99.90;;;;;;5095551;27;20554;-68
2021/10/02 02:41:48;;;;;;;59.38;23.63;;;12.40;99.90;;;;;;5114168;27;20046;-68
2021/10/02 02:44:14;;;;;;;28.15;19.45;;;12.30;99.90;;;;;;5109127;27;20039;-68
2021/10/02 02:46:40;;;;;;;24.30;18.75;;;12.30;99.90;;;;;;5102320;27;20399;-68
2021/10/02 02:49:15;;;;;;;46.72;24.80;;;12.30;99.90;;;;;;5111501;27;20043;-68
2021/10/02 02:51:57;;;;;;;70.13;27.80;;;12.30;99.90;;;;;;5121974;27;20047;-68
2021/10/02 02:54:30;;;;;;;45.60;25.15;;;12.30;99.90;;;;;;5110884;27;20043;-68
2021/10/02 02:57:03;;;;;;;43.67;21.25;;;12.30;99.90;;;;;;5096066;28;20027;-68
2021/10/02 02:59:40;;;;;;;35.85;22.98;;;12.30;99.90;;;;;;5094289;27;20112;-68
2021/10/02 03:02:10;;;;;;;41.80;23.52;;;12.30;99.90;;;;;;5112731;27;20506;-68
2021/10/02 03:04:37;;;;;;;41.42;22.80;;;12.20;99.90;;;;;;5112092;27;20053;-68
2021/10/02 03:07:05;;;;;;;24.83;19.80;;;12.20;99.90;;;;;;5094523;27;20035;-68
2021/10/02 03:09:40;;;;;;;43.58;24.95;;;12.20;99.90;;;;;;5098785;28;20431;-68
2021/10/02 03:12:06;;;;;;;;;;;12.20;99.90;;;;;;5116349;27;20096;-67
2021/10/02 03:14:34;;;;;;;28.42;19.08;;;12.10;99.90;;;;;;5115077;27;19919;-67
2021/10/02 03:17:01;;;;;;;56.85;27.45;;;12.10;99.90;;;;;;5108639;28;20070;-67
2021/10/02 03:19:28;;;;;;;45.78;24.95;;;12.10;99.90;;;;;;5093169;27;20087;-67
2021/10/02 03:21:55;;;;;;;35.90;22.10;;;12.10;99.90;;;;;;5118331;27;20028;-68
2021/10/02 03:24:23;;;;;;;37.97;24.63;;;12.10;99.90;;;;;;5117994;27;20343;-68
2021/10/02 03:26:50;;;;;;;30.13;22.00;;;12.20;99.90;;;;;;5115758;27;20051;-68
2021/10/02 03:29:17;;;;;;;37.63;24.50;;;12.20;99.90;;;;;;5100194;28;20657;-68
2021/10/02 03:31:44;;;;;;;32.22;22.75;;;12.20;99.90;;;;;;5095049;28;20050;-68
2021/10/02 03:34:11;;;;;;;33.63;23.48;;;12.20;99.90;;;;;;5120521;27;20254;-68
2021/10/02 03:36:37;;;;;;;38.65;24.33;;;12.20;99.90;;;;;;5122104;28;20085;-68
2021/10/02 03:39:03;;;;;;;38.90;24.42;;;12.30;99.90;;;;;;5123823;27;20049;-68
2021/10/02 03:41:29;;;;;;;38.05;24.67;;;12.20;99.90;;;;;;5096376;28;20098;-68
2021/10/02 03:43:54;;;;;;;30.73;24.00;;;12.20;99.90;;;;;;5119327;27;20051;-68
2021/10/02 03:46:20;;;;;;;34.85;25.52;;;12.20;99.90;;;;;;5091656;27;20048;-68
2021/10/02 03:48:46;;;;;;;37.78;24.55;;;12.20;99.90;;;;;;5117165;27;20027;-68
2021/10/02 03:51:12;;;;;;;29.55;24.00;;;12.20;99.90;;;;;;5092938;28;20519;-68
2021/10/02 03:53:37;;;;;;;44.42;26.63;;;12.20;99.90;;;;;;5114940;28;20027;-67
2021/10/02 03:56:04;;;;;;;26.45;21.30;;;12.20;99.90;;;;;;5114304;27;20066;-67
2021/10/02 03:58:30;;;;;;;33.60;24.52;;;12.10;99.90;;;;;;5096048;28;20533;-67
2021/10/02 04:00:56;;;;;;;67.72;29.67;;;12.10;99.90;;;;;;5099288;28;20058;-67
2021/10/02 04:03:22;;;;;;;45.38;28.55;;;12.00;99.90;;;;;;5111524;28;20479;-67
2021/10/02 04:05:47;;;;;;;105.50;34.90;;;12.00;99.90;;;;;;5098391;28;20161;-68
2021/10/02 04:08:13;;;;;;;42.72;27.70;;;12.00;99.90;;;;;;5120170;28;20027;-67
2021/10/02 04:10:39;;;;;;;44.08;27.27;;;12.00;99.90;;;;;;5123976;27;20045;-67
2021/10/02 04:13:06;;;;;;;40.05;25.00;;;12.00;99.90;;;;;;5109811;28;20038;-67
2021/10/02 04:15:32;;;;;;;77.07;32.08;;;11.90;99.90;;;;;;5102096;28;20038;-67
2021/10/02 04:17:57;;;;;;;61.35;31.20;;;11.90;99.90;;;;;;5101526;28;20031;-67
2021/10/02 04:20:23;;;;;;;46.85;29.70;;;11.90;99.90;;;;;;5101586;27;20164;-68
2021/10/02 04:22:49;;;;;;;42.13;28.77;;;11.90;99.90;;;;;;5093938;28;20043;-68
2021/10/02 04:25:15;;;;;;;47.42;28.98;;;12.00;99.90;;;;;;5107892;28;20100;-68
2021/10/02 04:27:40;;;;;;;47.85;29.35;;;12.00;99.90;;;;;;5097817;28;20126;-68
2021/10/02 04:30:06;;;;;;;62.92;34.05;;;12.00;99.90;;;;;;5104453;28;20047;-68
2021/10/02 04:32:32;;;;;;;124.85;41.03;;;12.00;99.90;;;;;;5118577;27;20551;-68
2021/10/02 04:34:58;;;;;;;71.38;32.15;;;12.10;99.90;;;;;;5085788;28;20039;-68
2021/10/02 04:37:23;;;;;;;72.55;34.33;;;12.10;99.90;;;;;;5112386;27;20469;-68
2021/10/02 04:39:49;;;;;;;143.60;42.40;;;12.10;99.90;;;;;;5105571;27;20089;-68
2021/10/02 04:42:15;;;;;;;52.13;32.58;;;12.10;99.90;;;;;;5104968;27;20050;-68
2021/10/02 04:44:41;;;;;;;103.10;39.83;;;12.20;99.90;;;;;;5123209;27;20077;-68
2021/10/02 04:47:06;;;;;;;93.93;36.90;;;12.20;99.90;;;;;;5107137;27;20076;-68
2021/10/02 04:49:32;;;;;;;66.28;35.40;;;12.10;99.90;;;;;;5120412;27;20031;-68
2021/10/02 04:51:58;;;;;;;67.78;35.72;;;12.20;99.90;;;;;;5105313;27;20513;-68
2021/10/02 04:54:23;;;;;;;63.78;33.65;;;12.20;99.90;;;;;;5101394;27;20040;-68
2021/10/02 04:56:49;;;;;;;47.10;29.92;;;12.20;99.90;;;;;;5129757;27;20043;-68
2021/10/02 04:59:15;;;;;;;55.35;32.40;;;12.30;99.90;;;;;;5102569;27;20054;-68
2021/10/02 05:01:40;;;;;;;61.45;34.00;;;12.30;99.90;;;;;;5125026;27;20039;-68
2021/10/02 05:04:06;;;;;;;60.30;34.17;;;12.30;99.90;;;;;;5103245;27;20134;-67
2021/10/02 05:06:32;;;;;;;54.78;32.97;;;12.30;99.90;;;;;;5123326;27;20533;-67
2021/10/02 05:08:58;;;;;;;94.55;39.42;;;12.30;99.90;;;;;;5116377;27;20039;-68
2021/10/02 05:11:24;;;;;;;73.97;36.17;;;12.40;99.90;;;;;;5124935;27;20509;-67
2021/10/02 05:13:50;;;;;;;59.65;35.25;;;12.40;99.90;;;;;;5120422;27;20050;-67
2021/10/02 05:16:16;;;;;;;49.15;31.42;;;12.40;99.90;;;;;;5129014;27;20038;-67
2021/10/02 05:18:41;;;;;;;58.78;33.15;;;12.40;99.90;;;;;;5100682;27;20336;-67
2021/10/02 05:21:07;;;;;;;64.53;35.30;;;12.40;99.90;;;;;;5121046;27;20039;-67
2021/10/02 05:23:33;;;;;;;58.70;35.03;;;12.40;99.90;;;;;;5121148;27;20027;-67
2021/10/02 05:25:59;;;;;;;62.95;36.20;;;12.40;99.90;;;;;;5113019;27;20099;-67
2021/10/02 05:28:25;;;;;;;64.05;35.80;;;12.40;99.90;;;;;;5130164;27;20043;-67
2021/10/02 05:30:51;;;;;;;75.93;38.15;;;12.50;99.90;;;;;;5098001;27;20473;-67
2021/10/02 05:33:17;;;;;;;63.13;36.40;;;12.50;99.90;;;;;;5104911;28;20065;-67
2021/10/02 05:35:45;;;;;;;61.92;37.00;;;12.50;99.90;;;;;;5099341;27;20455;-68
2021/10/02 05:38:10;;;;;;;108.43;44.08;;;12.50;99.90;;;;;;5108088;27;20480;-67
2021/10/02 05:40:36;;;;;;;48.90;33.05;;;12.60;99.90;;;;;;5122252;27;20044;-68
2021/10/02 05:43:02;;;;;;;121.38;44.15;;;12.50;99.90;;;;;;5103379;28;20537;-68
2021/10/02 05:45:29;;;;;;;57.78;35.72;;;12.60;99.90;;;;;;5097163;28;20092;-68
2021/10/02 05:47:55;;;;;;;91.85;40.35;;;12.60;99.90;;;;;;5102449;28;20035;-68
2021/10/02 05:50:21;;;;;;;93.95;41.80;;;12.60;99.90;;;;;;5096952;28;20073;-68
2021/10/02 05:52:47;;;;;;;70.20;37.80;;;12.70;99.90;;;;;;5101609;27;20217;-68
2021/10/02 05:55:13;;;;;;;75.43;38.50;;;12.70;99.90;;;;;;5101253;28;20043;-68
2021/10/02 05:57:38;;;;;;;68.25;38.85;;;12.70;99.90;;;;;;5101062;27;20039;-68
2021/10/02 06:00:07;;;;;;;63.97;37.80;;;12.70;99.90;;;;;;5104306;27;20059;-68
2021/10/02 06:02:33;;;;;;;82.65;40.95;;;12.70;99.90;;;;;;5095643;28;20116;-68
2021/10/02 06:04:59;;;;;;;57.33;35.05;;;12.80;99.90;;;;;;5102734;28;20043;-68
2021/10/02 06:07:24;;;;;;;54.80;34.97;;;12.80;99.90;;;;;;5099115;28;20039;-68
2021/10/02 06:09:51;;;;;;;72.22;39.08;;;12.80;99.90;;;;;;5099512;27;20100;-68
2021/10/02 06:12:18;;;;;;;70.07;38.72;;;12.80;99.90;;;;;;5097115;27;20124;-68
2021/10/02 06:14:44;;;;;;;64.78;37.67;;;12.90;99.90;;;;;;5087589;28;20364;-68
2021/10/02 06:17:10;;;;;;;83.18;39.40;;;12.90;99.90;;;;;;5098043;28;20157;-68
2021/10/02 06:19:36;;;;;;;52.88;34.38;;;12.90;99.90;;;;;;5105804;28;20082;-68
2021/10/02 06:22:02;;;;;;;61.03;35.28;;;12.90;99.90;;;;;;5097816;28;20495;-68
2021/10/02 06:24:28;;;;;;;106.85;39.65;;;12.90;99.90;;;;;;5096442;28;20117;-68
2021/10/02 06:26:54;;;;;;;61.80;37.05;;;13.00;99.90;;;;;;5095157;28;20040;-68
2021/10/02 06:29:20;;;;;;;45.55;34.75;;;13.00;99.90;;;;;;5106118;28;20046;-68
2021/10/02 06:31:46;;;;;;;80.82;39.72;;;13.00;99.90;;;;;;5117179;27;20075;-68
2021/10/02 06:34:13;;;;;;;69.75;38.30;;;13.00;99.90;;;;;;5125682;27;20340;-68
2021/10/02 06:36:39;;;;;;;57.28;36.88;;;13.00;99.90;;;;;;5118962;27;20541;-68
2021/10/02 06:39:04;;;;;;;53.60;35.10;;;13.00;99.90;;;;;;5104896;27;20126;-68
2021/10/02 06:41:30;;;;;;;58.75;37.35;;;13.00;99.90;;;;;;5119822;27;20541;-67
2021/10/02 06:43:56;;;;;;;79.07;38.15;;;13.00;99.90;;;;;;5117063;27;20035;-67
2021/10/02 06:46:22;;;;;;;66.32;38.00;;;13.00;99.90;;;;;;5127836;27;20525;-67
2021/10/02 06:48:48;;;;;;;84.35;40.20;;;13.00;99.90;;;;;;5117653;27;20035;-67
2021/10/02 06:51:13;;;;;;;56.00;36.38;;;13.10;99.90;;;;;;5104861;27;20213;-67
2021/10/02 06:53:39;;;;;;;45.65;32.78;;;13.10;99.90;;;;;;5098423;28;20039;-67
2021/10/02 06:56:05;;;;;;;61.38;36.25;;;13.10;99.90;;;;;;5123565;27;20384;-68
2021/10/02 06:58:32;;;;;;;52.95;35.20;;;13.20;99.90;;;;;;5099416;27;20041;-68
2021/10/02 07:00:57;;;;;;;50.85;35.58;;;13.20;99.90;;;;;;5122397;27;20501;-67
2021/10/02 07:03:23;;;;;;;47.92;35.08;;;13.10;99.90;;;;;;5098806;27;20117;-67
2021/10/02 07:05:48;;;;;;;46.47;35.33;;;13.20;99.90;;;;;;5121171;27;20507;-68
2021/10/02 07:08:14;;;;;;;47.35;34.20;;;13.20;99.90;;;;;;5094083;28;20204;-68
2021/10/02 07:10:41;;;;;;;47.78;34.95;;;13.20;99.90;;;;;;5088696;27;20055;-68
2021/10/02 07:13:06;;;;;;;42.72;33.45;;;13.20;99.90;;;;;;5115278;27;20501;-68
2021/10/02 07:15:32;;;;;;;43.17;33.25;;;13.20;99.90;;;;;;5100807;27;20067;-68
2021/10/02 07:17:58;;;;;;;81.57;40.35;;;13.30;99.90;;;;;;5124316;27;20043;-68
2021/10/02 07:20:25;;;;;;;45.03;34.50;;;13.30;99.90;;;;;;5118261;27;20039;-68
2021/10/02 07:22:51;;;;;;;46.00;34.40;;;13.20;99.90;;;;;;5122657;27;20081;-68
2021/10/02 07:25:17;;;;;;;48.58;33.13;;;13.30;99.90;;;;;;5114968;27;20111;-68
2021/10/02 07:27:44;;;;;;;40.90;31.67;;;13.30;99.90;;;;;;5123924;27;20055;-68
2021/10/02 07:30:12;;;;;;;41.25;29.83;;;13.30;99.90;;;;;;5113710;27;20043;-68
2021/10/02 07:32:38;;;;;;;37.85;30.50;;;13.30;99.90;;;;;;5126410;28;20131;-68
2021/10/02 07:35:06;;;;;;;48.40;32.72;;;13.30;99.90;;;;;;5093976;28;20187;-68
2021/10/02 07:37:31;;;;;;;38.78;30.73;;;13.40;99.90;;;;;;5131655;27;20553;-68
2021/10/02 07:39:57;;;;;;;37.00;29.40;;;13.40;99.90;;;;;;5100688;28;20066;-68
2021/10/02 07:42:25;;;;;;;41.63;30.35;;;13.40;99.90;;;;;;5122917;28;20526;-68
2021/10/02 07:44:56;;;;;;;37.75;29.35;;;13.50;99.90;;;;;;5088740;28;20035;-68
2021/10/02 07:47:23;;;;;;;32.75;28.88;;;13.60;99.90;;;;;;5098264;28;20055;-68
2021/10/02 07:49:50;;;;;;;36.80;30.48;;;13.70;99.90;;;;;;5075853;28;20051;-68
2021/10/02 07:52:17;;;;;;;37.25;29.65;;;13.80;99.90;;;;;;5099850;28;20514;-69
2021/10/02 07:54:44;;;;;;;36.70;29.98;;;14.00;99.90;;;;;;5119050;28;20073;-69
2021/10/02 07:57:11;;;;;;;33.70;28.23;;;14.00;99.90;;;;;;5099661;28;20040;-69
2021/10/02 07:59:40;;;;;;;37.90;30.45;;;14.10;99.90;;;;;;5110764;28;20046;-69
2021/10/02 08:02:07;;;;;;;32.25;28.23;;;14.30;99.90;;;;;;5077145;28;20468;-68
2021/10/02 08:04:33;;;;;;;33.55;27.65;;;14.70;99.90;;;;;;5097989;28;20046;-68
2021/10/02 08:06:59;;;;;;;30.17;27.13;;;15.00;99.90;;;;;;5089418;28;20044;-68
2021/10/02 08:09:25;;;;;;;26.52;23.88;;;15.40;99.90;;;;;;5104048;28;20126;-68
2021/10/02 08:11:51;;;;;;;29.55;25.25;;;15.50;99.90;;;;;;5079029;28;20122;-68
2021/10/02 08:14:17;;;;;;;27.77;24.92;;;15.50;99.90;;;;;;5126057;27;20205;-68
2021/10/02 08:16:46;;;;;;;28.77;24.67;;;15.70;99.90;;;;;;5118959;27;20147;-68
2021/10/02 08:19:15;;;;;;;24.73;22.38;;;15.80;99.90;;;;;;5098931;27;20078;-68
2021/10/02 08:21:41;;;;;;;28.95;24.17;;;16.30;99.90;;;;;;5096270;27;20062;-69
2021/10/02 08:24:07;;;;;;;25.55;22.88;;;16.40;99.90;;;;;;5140119;27;20554;-68
2021/10/02 08:26:34;;;;;;;29.48;24.15;;;16.40;99.90;;;;;;5085535;27;20047;-69
2021/10/02 08:29:02;;;;;;;25.38;22.65;;;16.20;99.90;;;;;;5108538;27;20134;-68
2021/10/02 08:31:29;;;;;;;25.83;22.95;;;15.90;99.90;;;;;;5098606;27;20039;-68
2021/10/02 08:33:55;;;;;;;25.58;23.00;;;15.70;99.90;;;;;;5125090;27;20042;-68
2021/10/02 08:36:21;;;;;;;26.55;23.45;;;15.50;99.90;;;;;;5119719;27;20110;-68
2021/10/02 08:38:47;;;;;;;24.15;21.70;;;15.40;99.90;;;;;;5129472;27;20045;-68
2021/10/02 08:41:17;;;;;;;23.42;20.77;;;15.20;99.90;;;;;;5107487;27;20055;-68
2021/10/02 08:43:47;;;;;;;24.45;21.95;;;15.10;99.90;;;;;;5117085;27;20063;-68
2021/10/02 08:46:14;;;;;;;25.45;22.75;;;15.00;99.90;;;;;;5128031;27;20149;-69
2021/10/02 08:48:41;;;;;;;26.48;22.20;;;14.90;99.90;;;;;;5111783;27;20039;-69
2021/10/02 08:51:07;;;;;;;23.98;21.33;;;14.90;99.90;;;;;;5103262;27;20043;-69
2021/10/02 08:53:33;;;;;;;22.75;20.27;;;15.30;99.90;;;;;;5118535;27;20035;-69
2021/10/02 08:56:03;;;;;;;23.90;21.40;;;15.70;99.90;;;;;;5121440;27;20250;-69
2021/10/02 08:58:29;;;;;;;23.55;21.10;;;16.20;99.90;;;;;;5112711;27;20047;-69
2021/10/02 09:00:56;;;;;;;24.77;20.45;;;16.20;99.90;;;;;;5125596;27;20507;-69
2021/10/02 09:03:23;;;;;;;24.90;21.55;;;16.30;99.90;;;;;;5095151;28;20051;-69
2021/10/02 09:05:49;;;;;;;23.20;20.10;;;16.20;99.90;;;;;;5099591;27;20157;-69
2021/10/02 09:08:15;;;;;;;25.55;20.90;;;16.10;99.90;;;;;;5092968;28;20138;-69
2021/10/02 09:10:41;;;;;;;24.10;20.83;;;16.00;99.90;;;;;;5105089;27;20035;-69
2021/10/02 09:13:07;;;;;;;23.05;20.10;;;16.10;99.90;;;;;;5124279;27;20072;-69
2021/10/02 09:15:33;;;;;;;22.13;19.75;;;16.40;99.90;;;;;;5096973;28;20134;-69
2021/10/02 09:17:59;;;;;;;22.83;20.23;;;16.70;99.90;;;;;;5098730;27;20059;-69
2021/10/02 09:20:25;;;;;;;23.00;20.58;;;16.90;99.90;;;;;;5096847;27;20146;-69
2021/10/02 09:23:08;;;;;;;24.20;20.85;;;16.80;99.90;;;;;;5121792;27;20399;-69
2021/10/02 09:25:35;;;;;;;22.35;19.95;;;16.60;99.90;;;;;;5120048;27;20043;-69
2021/10/02 09:28:10;;;;;;;24.45;20.40;;;16.30;99.90;;;;;;5127151;27;20168;-69
2021/10/02 09:30:39;;;;;;;23.20;20.75;;;16.40;99.90;;;;;;5100052;27;20111;-69
2021/10/02 09:33:23;;;;;;;24.73;19.95;;;16.40;99.90;;;;;;5100625;27;20050;-69
2021/10/02 09:35:50;;;;;;;26.27;21.13;;;16.50;99.90;;;;;;5104504;27;20118;-69
2021/10/02 09:38:18;;;;;;;22.90;20.50;;;16.70;99.90;;;;;;5130890;27;20285;-69
2021/10/02 09:40:58;;;;;;;22.60;19.35;;;16.90;99.90;;;;;;5112092;27;20044;-69
2021/10/02 09:43:25;;;;;;;21.02;18.73;;;17.10;99.90;;;;;;5095722;27;20062;-69
2021/10/02 09:45:52;;;;;;;21.10;18.42;;;17.60;99.90;;;;;;5092916;28;20048;-69
2021/10/02 09:48:54;;;;;;;23.67;16.38;;;18.10;99.90;;;;;;5121847;27;20498;-69
2021/10/02 09:51:19;;;;;;;17.85;15.45;;;18.80;99.90;;;;;;5085200;27;20380;-68
2021/10/02 09:53:46;;;;;;;19.05;16.15;;;18.90;99.90;;;;;;5101670;27;20054;-69
2021/10/02 09:56:14;;;;;;;16.33;14.30;;;19.30;99.90;;;;;;5085645;27;21060;-69
2021/10/02 09:58:41;;;;;;;14.13;12.15;;;19.70;99.90;;;;;;5118529;27;20054;-69
2021/10/02 10:01:22;;;;;;;13.68;11.57;;;19.90;99.90;;;;;;5106772;27;20151;-69
2021/10/02 10:03:49;;;;;;;15.25;10.95;;;20.30;98.10;;;;;;5103178;27;20069;-69
2021/10/02 10:06:35;;;;;;;11.55;10.35;;;20.90;98.40;;;;;;5113480;27;20413;-69
2021/10/02 10:09:05;;;;;;;9.88;8.68;;;21.20;93.60;;;;;;5118334;27;20039;-69
2021/10/02 10:12:00;;;;;;;10.73;9.48;;;21.30;94.40;;;;;;5090285;28;20048;-69
2021/10/02 10:14:27;;;;;;;11.30;8.35;;;21.80;91.30;;;;;;5099451;27;20043;-69
2021/10/02 10:16:56;;;;;;;10.45;7.45;;;21.90;91.40;;;;;;5120952;27;20133;-69
2021/10/02 10:19:30;;;;;;;7.80;6.20;;;21.90;92.10;;;;;;5102565;28;20403;-69
2021/10/02 10:22:14;;;;;;;10.68;6.50;;;22.50;92.30;;;;;;5114346;27;20121;-69
2021/10/02 10:24:50;;;;;;;;;;;23.10;89.80;;;;;;5096610;27;20392;-69
2021/10/02 10:27:47;;;;;;;6.55;4.45;;;23.40;89.50;;;;;;5113670;27;19958;-69
2021/10/02 10:30:27;;;;;;;6.80;4.78;;;23.40;87.80;;;;;;5123353;27;20496;-68
2021/10/02 10:32:59;;;;;;;8.63;4.75;;;23.10;83.20;;;;;;5113127;27;20115;-68
2021/10/02 10:35:48;;;;;;;10.60;4.65;;;23.00;82.60;;;;;;5113855;27;20042;-68
2021/10/02 10:38:21;;;;;;;8.00;4.32;;;22.70;80.40;;;;;;5114441;27;20031;-68
2021/10/02 10:40:47;;;;;;;8.32;4.22;;;22.30;79.80;;;;;;5116998;27;20051;-68
2021/10/02 10:43:13;;;;;;;7.53;3.53;;;21.60;80.70;;;;;;5107011;27;20173;-68
2021/10/02 10:45:39;;;;;;;11.25;4.20;;;21.00;82.00;;;;;;5118404;27;20071;-68
2021/10/02 10:48:06;;;;;;;6.10;3.55;;;20.90;82.20;;;;;;5110119;27;20042;-68
2021/10/02 10:50:34;;;;;;;6.82;3.50;;;21.10;81.50;;;;;;5094266;27;20101;-68
2021/10/02 10:53:02;;;;;;;7.05;3.20;;;21.40;82.20;;;;;;5116820;27;20059;-68
2021/10/02 10:55:28;;;;;;;7.45;3.63;;;21.90;81.50;;;;;;5119530;27;20035;-68
2021/10/02 10:57:57;;;;;;;7.22;3.00;;;22.10;80.10;;;;;;5107215;27;20045;-68
2021/10/02 11:00:32;;;;;;;7.68;3.20;;;22.40;78.30;;;;;;5119641;27;20035;-68
2021/10/02 11:03:07;;;;;;;6.32;2.53;;;22.60;76.30;;;;;;5098517;27;20052;-68
2021/10/02 11:05:36;;;;;;;6.93;2.40;;;22.30;74.80;;;;;;5088186;27;20070;-68
2021/10/02 11:08:10;;;;;;;4.63;2.28;;;21.60;75.50;;;;;;5097412;27;20066;-68
2021/10/02 11:10:42;;;;;;;;;;;20.90;75.50;;;;;;5097597;27;20078;-68
2021/10/02 11:13:09;;;;;;;7.57;2.58;;;20.30;77.30;;;;;;5119035;27;19919;-67
2021/10/02 11:15:35;;;;;;;10.15;2.38;;;19.90;82.00;;;;;;5120768;27;20032;-67
2021/10/02 11:18:01;;;;;;;3.88;1.67;;;19.80;83.50;;;;;;5080048;27;20174;-68
2021/10/02 11:20:26;;;;;;;5.80;2.13;;;19.70;81.50;;;;;;5113450;27;20446;-68
2021/10/02 11:23:29;;;;;;;4.50;2.15;;;19.60;81.20;;;;;;5111014;27;20035;-68
2021/10/02 11:26:24;;;;;;;6.47;2.30;;;19.50;81.80;;;;;;5114260;27;20049;-68
2021/10/02 11:29:14;;;;;;;7.35;2.97;;;19.20;83.90;;;;;;5092862;28;20143;-68
2021/10/02 11:31:40;;;;;;;5.47;3.03;;;19.00;84.00;;;;;;5116540;28;20585;-68
2021/10/02 11:34:22;;;;;;;5.10;3.00;;;18.80;85.80;;;;;;5107613;27;20039;-68
2021/10/02 11:36:54;;;;;;;8.00;2.88;;;18.70;87.00;;;;;;5094923;28;20120;-68
2021/10/02 11:39:28;;;;;;;8.18;3.00;;;18.50;87.90;;;;;;5094777;28;20524;-68
2021/10/02 11:41:57;;;;;;;9.95;3.03;;;18.30;88.30;;;;;;5114369;28;20028;-68
2021/10/02 11:44:32;;;;;;;6.43;3.10;;;18.10;88.40;;;;;;5113626;27;20039;-68
2021/10/02 11:47:35;;;;;;;9.40;3.45;;;18.00;89.20;;;;;;5118765;27;20055;-68
2021/10/02 11:50:06;;;;;;;7.13;2.72;;;17.80;88.90;;;;;;5118545;27;20044;-68
2021/10/02 11:53:00;;;;;;;8.40;2.65;;;17.60;90.40;;;;;;5126731;27;20284;-68
2021/10/02 11:58:10;;;;;;;7.32;2.65;;;17.40;91.50;;;;;;5117630;27;20123;-68
2021/10/02 12:00:48;;;;;;;7.18;3.10;;;17.30;91.70;;;;;;5111115;27;20058;-68
2021/10/02 12:03:22;;;;;;;8.68;5.80;;;17.20;91.60;;;;;;5100136;27;20134;-68
2021/10/02 12:05:49;;;;;;;16.70;9.87;;;17.00;92.30;;;;;;5108894;27;20124;-68
2021/10/02 12:08:16;;;;;;;8.40;2.85;;;16.90;92.30;;;;;;5093142;27;20352;-68
2021/10/02 12:11:12;;;;;;;9.15;3.30;;;16.80;92.80;;;;;;5109079;27;20047;-68
2021/10/02 12:13:43;;;;;;;7.60;3.35;;;16.80;92.90;;;;;;5075247;27;20049;-68
2021/10/02 12:16:13;;;;;;;6.95;3.15;;;16.70;93.30;;;;;;5108662;27;20494;-68
2021/10/02 12:18:51;;;;;;;11.68;3.80;;;16.60;93.80;;;;;;5116177;27;20035;-68
2021/10/02 12:21:23;;;;;;;6.40;3.55;;;16.70;93.90;;;;;;5108192;27;20430;-68
2021/10/02 12:24:05;;;;;;;6.55;3.30;;;16.60;94.60;;;;;;5116962;27;20047;-68
2021/10/02 12:26:43;;;;;;;9.40;4.50;;;16.60;94.90;;;;;;5088605;27;20441;-68
2021/10/02 12:29:11;;;;;;;8.88;3.50;;;16.50;95.30;;;;;;5114846;27;20396;-68
2021/10/02 12:31:44;;;;;;;9.00;3.28;;;16.50;95.40;;;;;;5107122;27;20058;-68
2021/10/02 12:34:16;;;;;;;5.28;2.55;;;16.50;95.60;;;;;;5097313;27;20051;-68
2021/10/02 12:36:49;;;;;;;7.05;2.88;;;16.50;95.70;;;;;;5108790;27;20084;-68
2021/10/02 12:39:17;;;;;;;8.85;2.90;;;16.40;96.10;;;;;;5114826;27;20093;-68
2021/10/02 12:41:44;;;;;;;7.43;2.55;;;16.40;96.30;;;;;;5108038;27;20403;-68
2021/10/02 12:44:32;;;;;;;6.95;2.85;;;16.40;96.80;;;;;;5093179;27;20458;-68
2021/10/02 12:47:00;;;;;;;6.55;2.88;;;16.40;96.90;;;;;;5088604;27;20470;-68
2021/10/02 12:49:26;;;;;;;9.63;3.15;;;16.40;97.30;;;;;;5115405;27;20363;-68
2021/10/02 12:51:54;;;;;;;9.63;3.10;;;16.40;97.50;;;;;;5103452;27;20440;-68
2021/10/02 12:54:25;;;;;;;6.95;3.10;;;16.30;97.70;;;;;;5117585;27;20537;-68
2021/10/02 12:57:10;;;;;;;9.05;3.33;;;16.30;97.70;;;;;;5088838;27;20094;-69
2021/10/02 12:59:47;;;;;;;8.10;3.22;;;16.20;97.90;;;;;;5098503;27;20047;-68
2021/10/02 13:02:14;;;;;;;7.70;3.33;;;16.10;97.90;;;;;;5088727;27;20092;-68
2021/10/02 13:04:40;;;;;;;6.05;3.20;;;16.10;98.40;;;;;;5113369;27;20043;-68
2021/10/02 13:07:06;;;;;;;6.22;2.97;;;16.10;99.00;;;;;;5108794;27;20045;-68
2021/10/02 13:10:01;;;;;;;7.57;3.17;;;16.10;98.60;;;;;;5108256;27;20126;-68
2021/10/02 13:12:29;;;;;;;5.30;2.88;;;16.10;98.90;;;;;;5089435;27;20093;-68
2021/10/02 13:14:56;;;;;;;6.97;3.00;;;16.10;99.10;;;;;;5081410;27;20043;-69
2021/10/02 13:17:22;;;;;;;8.20;3.03;;;16.10;99.00;;;;;;5087204;27;20061;-69
2021/10/02 13:19:48;;;;;;;6.97;3.83;;;16.10;99.00;;;;;;5114004;27;20103;-69
2021/10/02 13:22:18;;;;;;;6.43;2.90;;;16.10;99.50;;;;;;5078397;27;20054;-69
2021/10/02 13:25:10;;;;;;;6.55;3.30;;;16.10;99.60;;;;;;5095398;27;20054;-69
2021/10/02 13:27:42;;;;;;;8.48;3.45;;;16.20;99.90;;;;;;5094996;27;20039;-69
2021/10/02 13:30:32;;;;;;;5.80;3.00;;;16.20;99.90;;;;;;5095582;27;20059;-69
2021/10/02 13:33:13;;;;;;;7.07;2.55;;;16.40;99.90;;;;;;5089129;27;20046;-69
2021/10/02 13:35:45;;;;;;;6.25;2.35;;;16.70;99.90;;;;;;5095531;27;20491;-69
2021/10/02 13:38:11;;;;;;;5.10;2.10;;;17.00;99.40;;;;;;5111476;27;20032;-69
2021/10/02 13:40:53;;;;;;;5.60;2.08;;;17.10;99.50;;;;;;5097157;27;20080;-70
2021/10/02 13:43:23;;;;;;;6.60;2.03;;;17.20;98.60;;;;;;5088563;27;20046;-71